Time;durP1;ratioP1;P1;durP2;ratioP2;P2;SDS_P1;SDS_P2;PMS_P1;PMS_P2;Temp;Humidity;BMP_temperature;BMP_pressure;BME280_temperature;BME280_humidity;BME280_pressure;Samples;Min_cycle;Max_cycle;Signal;HPM_P1;HPM_P2
2022/11/11 00:00:06;;;;;;;;;;;;;;;1.23;84.72;102560.81;1863671;76;20144;-47
2022/11/11 00:02:53;;;;;;;;;;;;;;;1.33;84.57;102560.69;1863763;77;20129;-45
2022/11/11 00:05:39;;;;;;;;;;;;;;;1.39;84.31;102558.25;1863569;77;20116;-45
2022/11/11 00:08:25;;;;;;;;;;;;;;;1.42;84.22;102560.94;1863801;77;20124;-45
2022/11/11 00:11:12;;;;;;;;;;;;;;;1.46;83.98;102556.29;1863709;77;20151;-45
2022/11/11 00:13:58;;;;;;;;;;;;;;;1.49;83.74;102556.78;1863583;76;20139;-50
2022/11/11 00:25:57;;;;;;;;;;;;;;;1.53;83.94;102549.13;1863796;77;20150;-48
2022/11/11 00:28:43;;;;;;;;;;;;;;;1.50;83.63;102544.27;1863793;76;20136;-45
2022/11/11 00:31:28;;;;;;;;;;;;;;;1.43;83.66;102544.51;1863843;77;20113;-47
2022/11/11 00:34:15;;;;;;;;;;;;;;;1.38;83.66;102543.92;1863816;76;20397;-46
2022/11/11 00:37:01;;;;;;;;;;;;;;;1.40;83.73;102538.35;1863713;77;20441;-45
2022/11/11 00:39:47;;;;;;;;;;;;;;;1.44;83.65;102544.98;1863832;76;20116;-48
2022/11/11 00:42:33;;;;;;;;;;;;;;;1.47;83.72;102543.75;1863890;76;20379;-45
2022/11/11 00:45:19;;;;;;;;;;;;;;;1.53;83.60;102545.23;1863740;77;20145;-45
2022/11/11 00:51:01;;;;;;;;;;;;;;;1.52;83.35;102543.47;1819340;77;20129;-46
2022/11/11 00:53:47;;;;;;;;;;;;;;;1.40;83.24;102543.55;1863683;77;20397;-46
2022/11/11 00:56:35;;;;;;;;;;;;;;;1.27;83.44;102544.91;1863782;77;20120;-45
2022/11/11 00:59:20;;;;;;;;;;;;;;;1.19;83.52;102547.73;1870379;77;20168;-48
2022/11/11 01:02:05;;;;;;;;;;;;;;;1.11;83.40;102538.00;1873101;77;20140;-47
2022/11/11 01:04:51;;;;;;;;;;;;;;;1.03;83.44;102539.91;1873256;77;20127;-47
2022/11/11 01:07:38;;;;;;;;;;;;;;;0.95;83.58;102541.85;1873341;77;20116;-48
2022/11/11 01:10:40;;;;;;;;;;;;;;;0.90;83.67;102543.84;1873136;77;20183;-44
2022/11/11 01:13:24;;;;;;;;;;;;;;;0.93;83.82;102547.41;1873269;77;20112;-47
2022/11/11 01:16:14;;;;;;;;;;;;;;;1.00;83.79;102546.28;1873118;77;20159;-48
2022/11/11 01:19:00;;;;;;;;;;;;;;;1.04;83.68;102545.57;1883863;75;20181;-47
2022/11/11 01:21:46;;;;;;;;;;;;;;;1.02;83.60;102549.41;1905640;75;20122;-46
2022/11/11 01:24:32;;;;;;;;;;;;;;;1.04;83.67;102550.33;1905613;75;20114;-49
2022/11/11 01:27:18;;;;;;;;;;;;;;;1.04;83.69;102539.08;1905625;75;20161;-46
2022/11/11 01:30:04;;;;;;;;;;;;;;;1.07;83.79;102535.26;1905607;75;20114;-48
2022/11/11 01:32:50;;;;;;;;;;;;;;;1.06;83.80;102537.41;1883657;75;20252;-54
2022/11/11 01:35:40;;;;;;;;;;;;;;;1.08;83.83;102538.33;1873073;77;20239;-54
2022/11/11 01:38:26;;;;;;;;;;;;;;;1.11;83.68;102538.00;1875327;75;20146;-55
2022/11/11 01:44:34;;;;;;;;;;;;;;;1.21;83.55;102536.97;1873164;77;20124;-52
2022/11/11 01:47:21;;;;;;;;;;;;;;;1.26;83.56;102535.39;1835649;78;20447;-52
2022/11/11 01:50:08;;;;;;;;;;;;;;;1.31;83.70;102524.69;1835560;78;20114;-54
2022/11/11 01:52:54;;;;;;;;;;;;;;;1.37;83.74;102531.37;1835583;78;20150;-45
2022/11/11 01:55:39;;;;;;;;;;;;;;;1.42;83.69;102528.49;1831814;78;20414;-49
2022/11/11 01:58:25;;;;;;;;;;;;;;;1.44;83.72;102533.70;1831757;78;20148;-46
2022/11/11 02:01:11;;;;;;;;;;;;;;;1.45;83.80;102532.45;1831896;78;20391;-45
2022/11/11 02:07:04;;;;;;;;;;;;;;;1.50;83.63;102526.97;1862590;77;20134;-48
2022/11/11 02:09:51;;;;;;;;;;;;;;;1.58;83.54;102531.06;1860411;77;20177;-46
2022/11/11 02:15:41;;;;;;;;;;;;;;;1.59;83.16;102524.17;1860361;77;20114;-47
2022/11/11 02:18:27;;;;;;;;;;;;;;;1.59;83.03;102525.05;1859425;77;20118;-46
2022/11/11 02:21:16;;;;;;;;;;;;;;;1.58;82.96;102523.70;1831780;78;20121;-49
2022/11/11 02:24:06;;;;;;;;;;;;;;;1.53;82.99;102524.47;1831857;78;20406;-48
2022/11/11 02:26:53;;;;;;;;;;;;;;;1.51;83.00;102528.74;1831863;78;20167;-47
2022/11/11 02:29:40;;;;;;;;;;;;;;;1.50;82.97;102528.70;1831782;78;20145;-48
2022/11/11 02:32:26;;;;;;;;;;;;;;;1.49;82.95;102525.20;1831881;78;20125;-46
2022/11/11 02:35:13;;;;;;;;;;;;;;;1.45;82.92;102523.79;1834623;77;20388;-48
2022/11/11 02:38:05;;;;;;;;;;;;;;;1.42;82.90;102524.99;1862503;77;20149;-48
2022/11/11 02:43:51;;;;;;;;;;;;;;;1.32;83.00;102527.77;1862574;77;20159;-48
2022/11/11 02:46:37;;;;;;;;;;;;;;;1.29;83.05;102527.66;1859012;77;20111;-48
2022/11/11 02:49:23;;;;;;;;;;;;;;;1.27;83.17;102526.75;1857827;77;20147;-48
2022/11/11 02:52:09;;;;;;;;;;;;;;;1.25;83.17;102525.83;1855312;77;20395;-47
2022/11/11 02:54:55;;;;;;;;;;;;;;;1.21;83.14;102518.80;1861493;77;20237;-50
2022/11/11 02:57:41;;;;;;;;;;;;;;;1.13;83.30;102520.76;1858866;77;20159;-48
2022/11/11 03:00:27;;;;;;;;;;;;;;;1.12;83.34;102525.90;1860974;77;20198;-47
2022/11/11 03:03:13;;;;;;;;;;;;;;;1.12;83.31;102523.30;1859787;77;20229;-47
2022/11/11 03:05:58;;;;;;;;;;;;;;;1.14;83.31;102530.31;1857923;77;20123;-45
2022/11/11 03:08:44;;;;;;;;;;;;;;;1.11;83.34;102528.92;1851438;77;20399;-48
2022/11/11 03:11:30;;;;;;;;;;;;;;;1.09;83.44;102524.11;1852271;77;20429;-55
2022/11/11 03:14:15;;;;;;;;;;;;;;;1.05;83.56;102526.16;1860217;77;20261;-48
2022/11/11 03:23:12;;;;;;;;;;;;;;;0.96;84.05;102522.00;1859416;77;20173;-46
2022/11/11 03:25:58;;;;;;;;;;;;;;;0.95;84.21;102517.63;1861457;77;20118;-47
2022/11/11 03:28:44;;;;;;;;;;;;;;;0.95;84.29;102519.80;1859402;77;20119;-46
2022/11/11 03:31:29;;;;;;;;;;;;;;;0.98;84.32;102521.63;1859492;77;20427;-47
2022/11/11 03:34:17;;;;;;;;;;;;;;;1.01;84.35;102520.83;1860242;77;20392;-46
2022/11/11 03:40:10;;;;;;;;;;;;;;;1.13;84.35;102519.46;1848202;77;20214;-47
2022/11/11 03:42:55;;;;;;;;;;;;;;;1.22;84.15;102523.14;1848929;77;20581;-50
2022/11/11 03:45:42;;;;;;;;;;;;;;;1.17;84.11;102519.13;1844251;77;20572;-49
2022/11/11 03:48:29;;;;;;;;;;;;;;;1.15;84.01;102522.98;1846356;77;20125;-55
2022/11/11 03:51:14;;;;;;;;;;;;;;;1.11;84.13;102528.92;1837171;77;20143;-52
2022/11/11 03:54:01;;;;;;;;;;;;;;;1.05;84.24;102539.13;1850698;77;20127;-54
2022/11/11 03:56:46;;;;;;;;;;;;;;;1.01;84.32;102542.45;1843660;77;20235;-50
2022/11/11 03:59:32;;;;;;;;;;;;;;;0.96;84.44;102540.16;1850947;77;20263;-48
2022/11/11 04:11:23;;;;;;;;;;;;;;;1.01;84.53;102551.53;1843250;77;20244;-47
2022/11/11 04:17:14;;;;;;;;;;;;;;;1.06;84.45;102548.66;1838128;77;20175;-49
2022/11/11 04:23:03;;;;;;;;;;;;;;;1.04;84.48;102546.44;1849269;77;20255;-49
2022/11/11 04:25:49;;;;;;;;;;;;;;;1.05;84.48;102555.99;1853935;77;20182;-46
2022/11/11 04:32:34;;;;;;;;;;;;;;;1.14;84.22;102551.47;1845608;77;20404;-47
2022/11/11 04:34:29;;;;;;;;;;;;;;;1.11;84.18;102547.08;1834968;77;20121;-56
2022/11/11 04:37:15;;;;;;;;;;;;;;;1.07;84.04;102549.13;1843115;77;20316;-54
2022/11/11 04:43:04;;;;;;;;;;;;;;;1.02;84.30;102548.54;1862502;77;20115;-47
2022/11/11 04:45:50;;;;;;;;;;;;;;;1.04;84.36;102546.44;1862560;77;20142;-50
2022/11/11 04:48:36;;;;;;;;;;;;;;;1.12;84.30;102547.52;1861646;77;20115;-48
2022/11/11 04:52:24;;;;;;;;;;;;;;;1.15;84.16;102551.52;1831836;78;20185;-51
2022/11/11 04:54:09;;;;;;;;;;;;;;;1.19;84.13;102552.91;1831847;78;20147;-50
2022/11/11 04:56:55;;;;;;;;;;;;;;;1.14;84.20;102551.08;1831966;78;20132;-49
2022/11/11 04:59:40;;;;;;;;;;;;;;;1.18;84.22;102555.03;1831903;78;20191;-50
2022/11/11 05:11:26;;;;;;;;;;;;;;;1.26;83.96;102570.42;1831936;78;20139;-50
2022/11/11 05:25:23;;;;;;;;;;;;;;;1.51;83.74;102575.47;1831930;78;20120;-51
2022/11/11 05:26:10;;;;;;;;;;;;;;;1.60;83.57;102573.53;1846054;77;20118;-46
2022/11/11 05:28:56;;;;;;;;;;;;;;;1.67;83.51;102581.95;1862596;77;20123;-50
2022/11/11 05:31:42;;;;;;;;;;;;;;;1.74;83.34;102579.11;1862658;77;20148;-49
2022/11/11 05:34:27;;;;;;;;;;;;;;;1.78;83.36;102583.55;1862669;77;20122;-49
2022/11/11 05:37:13;;;;;;;;;;;;;;;1.76;83.53;102587.82;1862614;77;20431;-50
2022/11/11 05:39:59;;;;;;;;;;;;;;;1.84;83.48;102582.83;1862653;77;20118;-50
2022/11/11 05:42:45;;;;;;;;;;;;;;;1.90;83.45;102589.08;1841279;77;20492;-47
2022/11/11 05:45:31;;;;;;;;;;;;;;;1.91;83.40;102589.52;1843518;77;20208;-48
2022/11/11 05:48:17;;;;;;;;;;;;;;;1.84;83.47;102584.99;1846721;77;20138;-48
2022/11/11 05:51:02;;;;;;;;;;;;;;;1.86;83.59;102585.95;1861159;77;20118;-48
2022/11/11 05:53:48;;;;;;;;;;;;;;;2.03;83.53;102586.37;1850593;77;20131;-50
2022/11/11 05:56:34;;;;;;;;;;;;;;;2.22;83.35;102582.52;1843129;77;20383;-49
2022/11/11 05:59:20;;;;;;;;;;;;;;;2.32;83.15;102587.52;1841273;77;20123;-50
2022/11/11 06:02:06;;;;;;;;;;;;;;;2.43;83.24;102585.19;1836675;77;20392;-48
2022/11/11 06:04:53;;;;;;;;;;;;;;;2.38;83.02;102591.98;1862630;77;20118;-46
2022/11/11 06:07:39;;;;;;;;;;;;;;;2.39;83.02;102589.86;1862662;77;20157;-49
2022/11/11 06:10:31;;;;;;;;;;;;;;;2.42;82.85;102592.55;1862670;77;20415;-51
2022/11/11 06:13:17;;;;;;;;;;;;;;;2.45;82.62;102593.89;1862647;77;20156;-50
2022/11/11 06:16:03;;;;;;;;;;;;;;;2.46;82.62;102592.64;1835037;77;20129;-50
2022/11/11 06:18:49;;;;;;;;;;;;;;;2.47;82.54;102597.41;1831924;78;20162;-46
2022/11/11 06:21:55;;;;;;;;;;;;;;;2.51;82.71;102596.66;1831934;78;20378;-51
2022/11/11 06:24:22;;;;;;;;;;;;;;;2.54;82.85;102599.31;1831879;78;20155;-52
2022/11/11 06:27:09;;;;;;;;;;;;;;;2.62;82.88;102603.00;1831915;78;20121;-49
2022/11/11 06:29:55;;;;;;;;;;;;;;;2.66;83.00;102599.62;1831912;78;20132;-48
2022/11/11 06:32:41;;;;;;;;;;;;;;;2.81;83.03;102597.80;1831920;78;20199;-46
2022/11/11 06:35:27;;;;;;;;;;;;;;;2.95;82.83;102597.22;1831864;78;20214;-47
2022/11/11 06:38:13;;;;;;;;;;;;;;;2.97;82.55;102596.42;1831904;78;20437;-47
2022/11/11 06:40:59;;;;;;;;;;;;;;;2.93;82.38;102601.08;1831868;78;20393;-48
2022/11/11 06:43:45;;;;;;;;;;;;;;;2.91;82.25;102604.08;1831877;78;20117;-47
2022/11/11 06:46:31;;;;;;;;;;;;;;;2.93;82.26;102595.01;1831963;78;20172;-51
2022/11/11 06:49:17;;;;;;;;;;;;;;;2.96;82.44;102597.26;1831863;78;20211;-50
2022/11/11 06:52:03;;;;;;;;;;;;;;;2.97;82.43;102600.33;1852614;77;20142;-51
2022/11/11 06:54:48;;;;;;;;;;;;;;;3.03;82.43;102599.58;1862607;77;20179;-49
2022/11/11 06:57:35;;;;;;;;;;;;;;;3.08;82.34;102596.23;1862592;77;20115;-50
2022/11/11 07:00:21;;;;;;;;;;;;;;;3.14;82.26;102603.30;1862604;77;20148;-47
2022/11/11 07:03:08;;;;;;;;;;;;;;;3.21;82.24;102602.98;1862525;77;20117;-49
2022/11/11 07:05:54;;;;;;;;;;;;;;;3.33;82.22;102607.16;1862570;77;20122;-47
2022/11/11 07:08:43;;;;;;;;;;;;;;;3.39;82.07;102602.06;1862640;77;20142;-46
2022/11/11 07:11:27;;;;;;;;;;;;;;;3.44;82.05;102603.48;1862632;77;20592;-46
2022/11/11 07:14:13;;;;;;;;;;;;;;;3.45;81.94;102599.61;1862541;77;20118;-46
2022/11/11 07:16:59;;;;;;;;;;;;;;;3.49;81.92;102597.95;1862564;77;20175;-47
2022/11/11 07:19:45;;;;;;;;;;;;;;;3.54;81.94;102600.63;1843042;77;20214;-48
2022/11/11 07:22:31;;;;;;;;;;;;;;;3.60;81.95;102599.47;1831873;78;20153;-48
2022/11/11 07:25:16;;;;;;;;;;;;;;;3.60;82.00;102599.03;1831830;78;20152;-49
2022/11/11 07:28:02;;;;;;;;;;;;;;;3.65;81.92;102603.92;1831859;78;20422;-48
2022/11/11 07:30:48;;;;;;;;;;;;;;;3.73;81.95;102605.36;1831957;78;20419;-46
2022/11/11 07:33:34;;;;;;;;;;;;;;;3.81;81.97;102616.80;1832112;78;20172;-51
2022/11/11 07:36:20;;;;;;;;;;;;;;;3.92;81.91;102610.48;1845357;77;20187;-49
2022/11/11 07:39:05;;;;;;;;;;;;;;;4.01;81.80;102608.48;1844086;77;20155;-45
2022/11/11 07:41:51;;;;;;;;;;;;;;;4.02;81.78;102614.13;1834108;77;20168;-45
2022/11/11 07:44:37;;;;;;;;;;;;;;;4.01;81.70;102615.00;1862609;77;20144;-48
2022/11/11 07:47:23;;;;;;;;;;;;;;;4.06;81.68;102606.84;1862800;77;20159;-49
2022/11/11 07:50:10;;;;;;;;;;;;;;;4.05;81.60;102616.37;1861779;77;20149;-50
2022/11/11 07:52:55;;;;;;;;;;;;;;;4.02;81.58;102612.42;1851074;77;20149;-52
2022/11/11 07:55:41;;;;;;;;;;;;;;;4.06;81.60;102612.05;1831941;78;20164;-54
2022/11/11 07:58:27;;;;;;;;;;;;;;;4.16;81.64;102606.13;1831909;78;20125;-54
2022/11/11 08:01:13;;;;;;;;;;;;;;;4.31;81.72;102603.34;1833738;77;20120;-52
2022/11/11 08:03:59;;;;;;;;;;;;;;;4.38;81.66;102605.20;1825587;79;20117;-49
2022/11/11 08:06:45;;;;;;;;;;;;;;;4.43;81.56;102608.77;1825577;79;20144;-47
2022/11/11 08:09:31;;;;;;;;;;;;;;;4.50;81.52;102608.42;1827537;77;20158;-48
2022/11/11 08:15:21;;;;;;;;;;;;;;;4.63;81.47;102603.88;1825835;77;20304;-48
2022/11/11 08:18:07;;;;;;;;;;;;;;;4.71;81.50;102598.77;1856237;77;20172;-49
2022/11/11 08:20:53;;;;;;;;;;;;;;;4.68;81.32;102600.02;1867263;76;20409;-46
2022/11/11 08:23:39;;;;;;;;;;;;;;;4.63;81.17;102583.88;1825579;79;20391;-46
2022/11/11 08:26:25;;;;;;;;;;;;;;;4.67;81.22;102590.42;1825493;79;20117;-54
2022/11/11 08:29:11;;;;;;;;;;;;;;;4.77;81.22;102592.33;1825597;79;20141;-54
2022/11/11 08:31:57;;;;;;;;;;;;;;;4.83;81.26;102579.35;1825615;79;20386;-54
2022/11/11 08:34:43;;;;;;;;;;;;;;;4.84;81.26;102581.12;1825643;77;20117;-55
2022/11/11 08:37:28;;;;;;;;;;;;;;;4.84;81.33;102582.43;1833478;77;20121;-54
2022/11/11 08:40:15;;;;;;;;;;;;;;;4.93;81.54;102576.03;1849297;77;20115;-54
2022/11/11 08:43:01;;;;;;;;;;;;;;;5.02;81.50;102578.77;1855959;77;20123;-54
2022/11/11 08:45:47;;;;;;;;;;;;;;;5.10;81.43;102571.47;1830025;77;20421;-54
2022/11/11 08:48:33;;;;;;;;;;;;;;;5.12;81.25;102574.97;1827581;77;20129;-54
2022/11/11 08:51:19;;;;;;;;;;;;;;;5.19;81.24;102575.50;1827457;77;20115;-54
2022/11/11 08:54:05;;;;;;;;;;;;;;;5.33;81.24;102571.73;1849694;77;20151;-53
2022/11/11 08:56:51;;;;;;;;;;;;;;;5.42;81.16;102567.92;1856015;77;20454;-54
2022/11/11 08:59:37;;;;;;;;;;;;;;;5.40;81.04;102571.86;1853746;77;20123;-54
2022/11/11 09:02:23;;;;;;;;;;;;;;;5.46;81.10;102571.45;1857474;77;20126;-56
2022/11/11 09:05:09;;;;;;;;;;;;;;;5.48;81.03;102574.55;1831943;78;20133;-54
2022/11/11 09:07:55;;;;;;;;;;;;;;;5.48;80.98;102573.66;1813735;78;20151;-55
2022/11/11 09:10:41;;;;;;;;;;;;;;;5.54;81.03;102570.69;1835709;78;20478;-54
2022/11/11 09:13:27;;;;;;;;;;;;;;;5.58;80.97;102580.75;1835604;78;20119;-51
2022/11/11 09:16:12;;;;;;;;;;;;;;;5.53;80.85;102578.50;1831765;78;20127;-53
2022/11/11 09:18:59;;;;;;;;;;;;;;;5.52;80.86;102578.08;1841701;77;20131;-53
2022/11/11 09:21:45;;;;;;;;;;;;;;;5.53;80.86;102574.19;1838932;77;20136;-53
2022/11/11 09:24:31;;;;;;;;;;;;;;;5.56;80.97;102570.27;1833873;77;20159;-53
2022/11/11 09:27:17;;;;;;;;;;;;;;;5.69;81.03;102569.98;1831870;78;20604;-52
2022/11/11 09:30:02;;;;;;;;;;;;;;;5.77;81.02;102565.73;1831920;78;20439;-53
2022/11/11 09:32:48;;;;;;;;;;;;;;;5.72;80.87;102562.18;1843103;77;20123;-54
2022/11/11 09:35:35;;;;;;;;;;;;;;;5.76;80.89;102565.27;1842359;77;20145;-54
2022/11/11 09:38:21;;;;;;;;;;;;;;;5.85;80.98;102566.23;1831863;78;20128;-53
2022/11/11 09:41:11;;;;;;;;;;;;;;;5.96;81.02;102565.94;1831876;78;20485;-54
2022/11/11 09:43:58;;;;;;;;;;;;;;;5.99;80.90;102556.80;1831887;78;20112;-54
2022/11/11 09:46:46;;;;;;;;;;;;;;;6.03;80.85;102561.21;1833970;77;20121;-54
2022/11/11 09:49:36;;;;;;;;;;;;;;;6.11;80.80;102558.22;1831908;77;20178;-55
2022/11/11 09:52:23;;;;;;;;;;;;;;;6.16;80.83;102556.53;1859688;77;20439;-54
2022/11/11 09:55:16;;;;;;;;;;;;;;;6.24;80.84;102553.97;1835036;77;20196;-45
2022/11/11 09:58:07;;;;;;;;;;;;;;;6.35;80.81;102551.44;1832413;77;20173;-45
2022/11/11 10:01:01;;;;;;;;;;;;;;;6.37;80.68;102553.63;1831886;78;20125;-45
2022/11/11 10:03:48;;;;;;;;;;;;;;;6.35;80.65;102551.00;1834035;77;20188;-45
2022/11/11 10:06:35;;;;;;;;;;;;;;;6.42;80.68;102553.65;1833705;77;20213;-44
2022/11/11 10:09:25;;;;;;;;;;;;;;;6.46;80.60;102560.23;1825573;79;20113;-43
2022/11/11 10:12:13;;;;;;;;;;;;;;;6.47;80.57;102556.73;1833997;77;20172;-44
2022/11/11 10:15:00;;;;;;;;;;;;;;;6.48;80.55;102559.81;1853515;77;20115;-45
2022/11/11 10:17:47;;;;;;;;;;;;;;;6.53;80.48;102555.94;1844104;77;20466;-44
2022/11/11 10:20:34;;;;;;;;;;;;;;;6.45;80.33;102550.62;1825517;79;20417;-46
2022/11/11 10:23:21;;;;;;;;;;;;;;;6.35;80.33;102547.52;1825582;79;20125;-46
2022/11/11 10:26:18;;;;;;;;;;;;;;;6.22;80.37;102552.22;1827604;77;20222;-47
2022/11/11 10:29:06;;;;;;;;;;;;;;;6.10;80.51;102547.73;1827304;77;20411;-45
2022/11/11 10:31:56;;;;;;;;;;;;;;;6.08;80.61;102544.23;1844405;76;20167;-44
2022/11/11 10:34:42;;;;;;;;;;;;;;;6.08;80.71;102539.88;1834762;77;20212;-45
2022/11/11 10:37:29;;;;;;;;;;;;;;;6.14;80.75;102542.56;1825445;79;20117;-47
2022/11/11 10:40:33;;;;;;;;;;;;;;;6.18;80.74;102540.41;1847399;76;20145;-50
2022/11/11 10:43:20;;;;;;;;;;;;;;;6.30;80.76;102541.36;1885695;76;20153;-47
2022/11/11 10:46:11;;;;;;;;;;;;;;;6.36;80.75;102540.98;1874185;76;20218;-42
2022/11/11 10:49:05;;;;;;;;;;;;;;;6.45;80.78;102545.39;1837747;76;20180;-42
2022/11/11 10:51:53;;;;;;;;;;;;;;;6.48;80.73;102545.42;1858340;76;20113;-43
2022/11/11 10:54:43;;;;;;;;;;;;;;;6.44;80.90;102546.27;1887886;76;20147;-42
2022/11/11 10:57:33;;;;;;;;;;;;;;;6.40;81.11;102547.53;1887850;76;20394;-47
2022/11/11 11:00:19;;;;;;;;;;;;;;;6.42;81.12;102547.11;1887872;76;20116;-45
2022/11/11 11:03:22;;;;;;;;;;;;;;;6.47;81.19;102550.64;1889060;76;20125;-39
2022/11/11 11:06:12;;;;;;;;;;;;;;;6.49;81.11;102553.73;1894655;76;20159;-48
2022/11/11 11:08:59;;;;;;;;;;;;;;;6.45;80.97;102550.62;1894584;76;20156;-48
2022/11/11 11:11:50;;;;;;;;;;;;;;;6.46;80.87;102549.77;1894657;76;20117;-41
2022/11/11 11:14:37;;;;;;;;;;;;;;;6.49;80.82;102552.83;1894787;76;20146;-42
2022/11/11 11:17:24;;;;;;;;;;;;;;;6.50;80.82;102558.08;1894594;76;20128;-50
2022/11/11 11:20:11;;;;;;;;;;;;;;;6.50;80.81;102558.08;1868775;76;20450;-46
2022/11/11 11:23:00;;;;;;;;;;;;;;;6.45;80.82;102557.16;1861410;77;20122;-48
2022/11/11 11:25:46;;;;;;;;;;;;;;;6.46;80.84;102568.09;1833766;77;20394;-47
2022/11/11 11:28:33;;;;;;;;;;;;;;;6.51;80.79;102560.25;1833938;77;20457;-44
2022/11/11 11:31:20;;;;;;;;;;;;;;;6.55;80.76;102566.84;1833872;77;20137;-45
2022/11/11 11:34:06;;;;;;;;;;;;;;;6.56;80.77;102563.34;1833809;77;20211;-49
2022/11/11 11:37:01;;;;;;;;;;;;;;;6.53;80.77;102566.41;1831856;78;20136;-47
2022/11/11 11:39:47;;;;;;;;;;;;;;;6.49;80.75;102565.51;1833938;77;20144;-48
2022/11/11 11:42:38;;;;;;;;;;;;;;;6.51;80.79;102564.19;1833897;77;20333;-47
2022/11/11 11:45:25;;;;;;;;;;;;;;;6.51;80.80;102559.84;1833850;77;20129;-41
2022/11/11 11:48:22;;;;;;;;;;;;;;;6.44;80.77;102564.59;1831863;78;20393;-42
2022/11/11 11:51:18;;;;;;;;;;;;;;;6.37;80.78;102572.81;1831859;78;20121;-41
2022/11/11 11:54:06;;;;;;;;;;;;;;;6.33;80.88;102571.48;1833634;77;20193;-45
2022/11/11 11:56:52;;;;;;;;;;;;;;;6.25;80.95;102568.78;1862391;77;20163;-47
2022/11/11 11:59:43;;;;;;;;;;;;;;;6.25;80.99;102570.53;1862581;77;20113;-49
2022/11/11 12:02:39;;;;;;;;;;;;;;;6.25;81.03;102570.53;1862579;77;20122;-46
2022/11/11 12:05:42;;;;;;;;;;;;;;;6.27;81.06;102574.03;1853903;77;20267;-46
2022/11/11 12:08:29;;;;;;;;;;;;;;;6.27;81.10;102576.65;1855967;77;20416;-47
2022/11/11 12:11:19;;;;;;;;;;;;;;;6.30;81.13;102581.91;1855970;77;20122;-44
2022/11/11 12:14:06;;;;;;;;;;;;;;;6.34;81.12;102583.28;1856076;77;20146;-44
2022/11/11 12:17:03;;;;;;;;;;;;;;;6.32;81.04;102590.65;1853849;77;20421;-44
2022/11/11 12:19:50;;;;;;;;;;;;;;;6.30;81.04;102582.78;1849529;77;20126;-48
2022/11/11 12:22:38;;;;;;;;;;;;;;;6.36;81.07;102592.42;1856088;77;20119;-47
2022/11/11 12:25:41;;;;;;;;;;;;;;;6.40;81.23;102599.45;1840343;77;20411;-46
2022/11/11 12:28:47;;;;;;;;;;;;;;;6.42;81.33;102591.59;1853927;77;20114;-42
2022/11/11 12:31:37;;;;;;;;;;;;;;;6.41;81.23;102591.16;1856102;77;20226;-49
2022/11/11 12:34:34;;;;;;;;;;;;;;;6.39;81.18;102592.45;1853777;77;20148;-43
2022/11/11 12:37:28;;;;;;;;;;;;;;;6.34;81.16;102588.92;1853813;77;20243;-40
2022/11/11 12:40:15;;;;;;;;;;;;;;;6.29;81.12;102588.00;1853845;77;20122;-40
2022/11/11 12:43:15;;;;;;;;;;;;;;;6.27;81.13;102587.11;1856025;77;20145;-42
2022/11/11 12:46:02;;;;;;;;;;;;;;;6.26;81.15;102590.17;1855996;77;20162;-41
2022/11/11 12:49:06;;;;;;;;;;;;;;;6.22;81.20;102599.30;1844217;77;20153;-42
2022/11/11 12:51:56;;;;;;;;;;;;;;;6.18;81.22;102592.72;1826288;77;20158;-41
2022/11/11 12:54:43;;;;;;;;;;;;;;;6.12;81.25;102590.06;1825479;79;20156;-55
2022/11/11 12:57:47;;;;;;;;;;;;;;;6.04;81.39;102598.25;1836528;77;20238;-62
2022/11/11 13:00:35;;;;;;;;;;;;;;;5.96;81.62;102599.48;1853890;77;20433;-45
2022/11/11 13:03:22;;;;;;;;;;;;;;;5.91;81.74;102599.83;1854131;77;20432;-50
2022/11/11 13:06:15;;;;;;;;;;;;;;;5.87;81.77;102604.59;1840446;77;20200;-51
2022/11/11 13:09:12;;;;;;;;;;;;;;;5.88;81.86;102605.02;1856044;77;20155;-48
2022/11/11 13:12:08;;;;;;;;;;;;;;;5.89;81.83;102607.23;1853733;77;20149;-47
2022/11/11 13:15:14;;;;;;;;;;;;;;;5.92;81.80;102610.75;1856028;77;20151;-50
2022/11/11 13:18:01;;;;;;;;;;;;;;;5.97;81.75;102606.89;1856035;77;20139;-48
2022/11/11 13:20:48;;;;;;;;;;;;;;;6.03;81.71;102610.90;1825517;79;20251;-52
2022/11/11 13:23:34;;;;;;;;;;;;;;;6.01;81.65;102602.13;1840403;77;20115;-51
2022/11/11 13:26:27;;;;;;;;;;;;;;;6.01;81.65;102606.06;1845264;77;20164;-54
2022/11/11 13:29:24;;;;;;;;;;;;;;;6.02;81.65;102606.52;1856033;77;20159;-53
2022/11/11 13:32:11;;;;;;;;;;;;;;;6.00;81.65;102604.32;1848808;77;20426;-52
2022/11/11 13:34:58;;;;;;;;;;;;;;;5.98;81.62;102621.30;1834749;77;20141;-52
2022/11/11 13:37:44;;;;;;;;;;;;;;;5.94;81.66;102614.26;1840054;77;20126;-51
2022/11/11 13:40:35;;;;;;;;;;;;;;;5.97;81.69;102622.58;1855788;77;20215;-49
2022/11/11 13:43:38;;;;;;;;;;;;;;;5.92;81.71;102618.59;1854078;77;20617;-53
2022/11/11 13:46:37;;;;;;;;;;;;;;;5.92;81.69;102625.54;1841044;77;20123;-50
2022/11/11 13:49:28;;;;;;;;;;;;;;;5.91;81.68;102622.06;1884262;76;20481;-52
2022/11/11 13:52:22;;;;;;;;;;;;;;;5.90;81.80;102624.65;1887857;76;20152;-49
2022/11/11 13:55:12;;;;;;;;;;;;;;;5.85;81.81;102624.62;1887851;76;20234;-51
2022/11/11 13:57:59;;;;;;;;;;;;;;;5.83;81.90;102625.03;1885693;76;20117;-52
2022/11/11 14:00:45;;;;;;;;;;;;;;;5.84;81.92;102621.55;1887822;76;20190;-52
2022/11/11 14:03:32;;;;;;;;;;;;;;;5.82;82.06;102618.48;1887880;76;20175;-51
2022/11/11 14:06:20;;;;;;;;;;;;;;;5.76;82.21;102621.47;1887942;76;20207;-49
2022/11/11 14:09:07;;;;;;;;;;;;;;;5.72;82.26;102620.99;1887861;76;20151;-50
2022/11/11 14:11:54;;;;;;;;;;;;;;;5.70;82.31;102626.63;1887859;76;20180;-48
2022/11/11 14:14:48;;;;;;;;;;;;;;;5.68;82.41;102627.05;1887731;76;20125;-50
2022/11/11 14:17:34;;;;;;;;;;;;;;;5.67;82.42;102644.88;1887866;76;20148;-50
2022/11/11 14:20:21;;;;;;;;;;;;;;;5.69;82.46;102641.86;1860057;76;20119;-48
2022/11/11 14:23:22;;;;;;;;;;;;;;;5.68;82.55;102649.67;1855795;77;20147;-46
2022/11/11 14:26:09;;;;;;;;;;;;;;;5.64;82.58;102648.76;1856001;77;20119;-48
2022/11/11 14:29:02;;;;;;;;;;;;;;;5.63;82.63;102648.33;1856017;77;20151;-46
2022/11/11 14:31:56;;;;;;;;;;;;;;;5.64;82.58;102647.89;1856035;77;20135;-48
2022/11/11 14:34:45;;;;;;;;;;;;;;;5.61;82.65;102652.23;1856034;77;20151;-47
2022/11/11 14:37:41;;;;;;;;;;;;;;;5.61;82.70;102650.05;1848536;77;20150;-49
2022/11/11 14:40:31;;;;;;;;;;;;;;;5.64;82.68;102655.73;1856015;77;20119;-46
2022/11/11 14:43:38;;;;;;;;;;;;;;;5.60;82.78;102663.96;1856011;77;20114;-47
2022/11/11 14:46:24;;;;;;;;;;;;;;;5.55;82.94;102666.94;1856045;77;20127;-50
2022/11/11 14:49:11;;;;;;;;;;;;;;;5.56;82.91;102667.40;1855999;77;20145;-49
2022/11/11 14:51:58;;;;;;;;;;;;;;;5.56;82.90;102664.79;1855901;77;20145;-50
2022/11/11 14:54:45;;;;;;;;;;;;;;;5.55;82.89;102663.02;1856055;77;20209;-48
2022/11/11 14:57:39;;;;;;;;;;;;;;;5.56;82.92;102667.40;1855952;77;20384;-48
2022/11/11 15:00:29;;;;;;;;;;;;;;;5.53;83.01;102667.35;1855879;77;20151;-46
2022/11/11 15:03:17;;;;;;;;;;;;;;;5.52;83.10;102663.00;1855948;77;20131;-48
2022/11/11 15:06:03;;;;;;;;;;;;;;;5.49;83.13;102660.34;1859792;77;20148;-48
2022/11/11 15:09:00;;;;;;;;;;;;;;;5.43;83.47;102662.88;1862661;77;20534;-47
2022/11/11 15:11:53;;;;;;;;;;;;;;;5.39;83.50;102666.75;1862557;77;20122;-50
2022/11/11 15:14:43;;;;;;;;;;;;;;;5.40;83.49;102667.22;1862508;77;20156;-47
2022/11/11 15:17:46;;;;;;;;;;;;;;;5.44;83.43;102669.84;1861347;77;20261;-47
2022/11/11 15:20:33;;;;;;;;;;;;;;;5.47;83.36;102672.51;1855438;77;20591;-47
2022/11/11 15:23:27;;;;;;;;;;;;;;;5.50;83.30;102666.03;1859536;77;20119;-47
2022/11/11 15:26:24;;;;;;;;;;;;;;;5.50;83.29;102669.95;1858494;77;20231;-47
2022/11/11 15:29:20;;;;;;;;;;;;;;;5.44;83.51;102664.62;1861437;77;20163;-47
2022/11/11 15:32:07;;;;;;;;;;;;;;;5.39;83.65;102671.11;1861648;77;20381;-48
2022/11/11 15:34:55;;;;;;;;;;;;;;;5.35;83.91;102666.27;1863809;77;20476;-47
2022/11/11 15:37:41;;;;;;;;;;;;;;;5.37;83.98;102678.92;1860420;77;20271;-48
2022/11/11 15:40:28;;;;;;;;;;;;;;;5.37;84.08;102677.61;1861781;77;20222;-47
2022/11/11 15:43:15;;;;;;;;;;;;;;;5.34;84.19;102682.78;1862398;77;20181;-49
2022/11/11 15:46:02;;;;;;;;;;;;;;;5.35;84.19;102686.30;1862454;77;20102;-50
2022/11/11 15:48:50;;;;;;;;;;;;;;;5.34;84.24;102686.70;1862545;77;20142;-50
2022/11/11 15:51:36;;;;;;;;;;;;;;;5.35;84.28;102686.30;1862587;77;20138;-48